createdAt,value
2022-09-20T00:04:49.854Z,100158.06
2022-09-20T00:09:52.394Z,100167.47
2022-09-20T00:14:54.792Z,100175.19
2022-09-20T00:19:57.238Z,100181.97
2022-09-20T00:24:59.716Z,100166.31
2022-09-20T00:30:02.199Z,100183.94
2022-09-20T00:35:07.952Z,100169.91
2022-09-20T00:40:14.725Z,100176.88
2022-09-20T00:45:24.146Z,100180.84
2022-09-20T00:50:48.231Z,100160.47
2022-09-20T00:55:52.774Z,100172.66
2022-09-20T01:00:57.407Z,100165.63
2022-09-20T01:06:03.646Z,100177.41
2022-09-20T01:11:06.073Z,100174.75
2022-09-20T01:16:08.880Z,100173.66
2022-09-20T01:21:11.300Z,100173.81
2022-09-20T01:26:16.619Z,100184.13
2022-09-20T01:31:29.942Z,100185.13
2022-09-20T01:36:38.268Z,100180.06
2022-09-20T01:41:42.413Z,100178.81
2022-09-20T01:46:46.888Z,100171.13
2022-09-20T01:51:55.009Z,100185.41
2022-09-20T01:57:12.330Z,100182.09
2022-09-20T02:02:22.731Z,100194.22
2022-09-20T02:07:43.242Z,100192.03
2022-09-20T02:12:59.328Z,100200.13
2022-09-20T02:18:19.891Z,100208.25
2022-09-20T02:23:43.398Z,100205.78
2022-09-20T02:28:51.764Z,100214.25
2022-09-20T02:34:15.773Z,100206.41
2022-09-20T02:39:23.061Z,100205.28
2022-09-20T02:44:34.628Z,100204.94
2022-09-20T02:49:47.234Z,100209.84
2022-09-20T02:54:58.376Z,100215.72
2022-09-20T03:00:26.977Z,100203.19
2022-09-20T03:05:50.950Z,100201.03
2022-09-20T03:11:17.148Z,100210.41
2022-09-20T03:16:27.862Z,100219.59
2022-09-20T03:21:36.445Z,100226.63
2022-09-20T03:26:42.659Z,100234.63
2022-09-20T03:31:49.135Z,100230.44
2022-09-20T03:36:54.750Z,100229.25
2022-09-20T03:42:27.210Z,100232.53
2022-09-20T03:47:46.921Z,100250.59
2022-09-20T03:52:58.488Z,100242.09
2022-09-20T03:58:21.097Z,100240.06
2022-09-20T04:03:53.530Z,100252.31
2022-09-20T04:09:16.216Z,100254.22
2022-09-20T04:14:33.947Z,100240.66
2022-09-20T04:19:42.298Z,100267.88
2022-09-20T04:24:54.723Z,100274.03
2022-09-20T04:30:06.136Z,100274.63
2022-09-20T04:35:59.043Z,100278.75
2022-09-20T04:41:06.980Z,100278.03
2022-09-20T04:46:24.539Z,100293.72
2022-09-20T04:51:51.348Z,100298.63
2022-09-20T04:57:47.408Z,100299.63
2022-09-20T05:03:00.304Z,100305.69
2022-09-20T05:08:14.890Z,100309.50
2022-09-20T05:13:34.754Z,100302.03
2022-09-20T05:19:04.100Z,100310.09
2022-09-20T05:24:24.702Z,100308.66
2022-09-20T05:29:42.496Z,100314.34
2022-09-20T05:34:44.830Z,100310.88
2022-09-20T05:39:54.708Z,100331.47
2022-09-20T05:45:21.684Z,100319.69
2022-09-20T05:50:53.857Z,100334.31
2022-09-20T05:56:23.091Z,100334.09
2022-09-20T06:01:35.481Z,100332.47
2022-09-20T06:06:52.946Z,100347.41
2022-09-20T06:12:12.704Z,100341.41
2022-09-20T06:17:37.846Z,100318.75
2022-09-20T06:22:47.318Z,100349.63
2022-09-20T06:27:57.157Z,100342.63
2022-09-20T06:33:01.634Z,100366.28
2022-09-20T06:38:25.511Z,100372.47
2022-09-20T06:43:31.589Z,100374.69
2022-09-20T06:48:34.470Z,100375.19
2022-09-20T06:53:39.804Z,100376.81
2022-09-20T06:58:42.355Z,100354.56
2022-09-20T07:03:44.706Z,100388.94
2022-09-20T07:08:47.634Z,100396.03
2022-09-20T07:13:55.275Z,100406.91
2022-09-20T07:18:57.971Z,100400.81
2022-09-20T07:24:02.051Z,100407.84
2022-09-20T07:29:04.562Z,100406.06
2022-09-20T07:34:06.927Z,100411.94
2022-09-20T07:39:09.237Z,100415.34
2022-09-20T07:44:28.001Z,100425.25
2022-09-20T07:49:30.516Z,100415.28
2022-09-20T07:54:32.923Z,100421.69
2022-09-20T07:59:35.420Z,100428.91
2022-09-20T08:04:37.774Z,100433.00
2022-09-20T08:09:40.145Z,100426.84
2022-09-20T08:14:42.516Z,100431.94
2022-09-20T08:19:45.209Z,100430.28
2022-09-20T08:24:47.565Z,100436.06
2022-09-20T08:29:50.228Z,100432.00
2022-09-20T08:34:52.617Z,100423.56
2022-09-20T08:39:57.923Z,100436.66
2022-09-20T08:45:06.788Z,100434.22
2022-09-20T08:50:17.284Z,100448.28
2022-09-20T08:55:28.122Z,100448.16
2022-09-20T09:00:33.301Z,100440.81
2022-09-20T09:05:47.615Z,100441.28
2022-09-20T09:10:55.212Z,100441.31
2022-09-20T09:16:00.925Z,100447.03
2022-09-20T09:21:05.124Z,100447.44
2022-09-20T09:26:16.238Z,100453.34
2022-09-20T09:31:26.855Z,100444.00
2022-09-20T09:36:29.420Z,100459.84
2022-09-20T09:41:35.795Z,100463.09
2022-09-20T09:46:43.451Z,100444.09
2022-09-20T09:52:04.168Z,100446.09
2022-09-20T09:57:16.139Z,100461.06
2022-09-20T10:02:36.924Z,100463.47
2022-09-20T10:07:52.165Z,100459.16
2022-09-20T10:13:22.351Z,100461.81
2022-09-20T10:18:49.406Z,100461.81
2022-09-20T10:24:17.007Z,100459.38
2022-09-20T10:29:46.595Z,100439.09
2022-09-20T10:35:02.109Z,100454.16
2022-09-20T10:40:46.650Z,100459.16
2022-09-20T10:51:46.737Z,100470.34
2022-09-20T10:56:52.310Z,100474.44
2022-09-20T11:02:06.882Z,100474.56
2022-09-20T11:07:30.267Z,100472.91
2022-09-20T11:12:50.199Z,100460.66
2022-09-20T11:18:14.551Z,100472.34
2022-09-20T11:23:23.749Z,100469.69
2022-09-20T11:28:32.708Z,100470.75
2022-09-20T11:33:44.000Z,100473.41
2022-09-20T11:38:53.099Z,100472.34
2022-09-20T11:44:00.589Z,100465.84
2022-09-20T11:49:12.424Z,100466.56
2022-09-20T11:54:27.895Z,100489.00
2022-09-20T11:59:40.547Z,100470.63
2022-09-20T12:04:46.036Z,100481.84
2022-09-20T12:10:00.936Z,100485.44
2022-09-20T12:15:07.042Z,100487.75
2022-09-20T12:20:39.911Z,100492.91
2022-09-20T12:26:03.305Z,100496.50
2022-09-20T12:31:29.692Z,100522.09
2022-09-20T12:36:36.292Z,100533.44
2022-09-20T12:42:06.443Z,100560.13
2022-09-20T12:47:11.380Z,100563.94
2022-09-20T12:52:47.364Z,100564.34
2022-09-20T12:58:14.446Z,100554.22
2022-09-20T13:03:21.794Z,100556.22
2022-09-20T13:08:28.160Z,100564.38
2022-09-20T13:13:41.361Z,100572.09
2022-09-20T13:18:44.006Z,100575.34
2022-09-20T13:23:51.020Z,100574.19
2022-09-20T13:28:56.179Z,100571.81
2022-09-20T13:34:23.394Z,100580.19
2022-09-20T13:39:31.635Z,100558.56
2022-09-20T13:44:35.210Z,100573.63
2022-09-20T13:49:43.886Z,100579.84
2022-09-20T13:54:46.527Z,100588.59
2022-09-20T13:59:49.403Z,100581.38
2022-09-20T14:04:54.700Z,100583.59
2022-09-20T14:09:58.302Z,100571.31
2022-09-20T14:15:11.486Z,100579.28
2022-09-20T14:20:15.957Z,100609.47
2022-09-20T14:25:28.126Z,100611.78
2022-09-20T14:30:33.240Z,100596.41
2022-09-20T14:35:35.655Z,100614.06
2022-09-20T14:40:48.713Z,100603.69
2022-09-20T14:46:00.694Z,100617.09
2022-09-20T14:51:12.761Z,100632.06
2022-09-20T14:56:16.290Z,100625.25
2022-09-20T15:01:26.089Z,100620.06
2022-09-20T15:06:28.425Z,100620.59
2022-09-20T15:11:30.795Z,100614.94
2022-09-20T15:16:36.299Z,100630.91
2022-09-20T15:21:39.098Z,100627.59
2022-09-20T15:26:41.462Z,100630.06
2022-09-20T15:31:48.217Z,100631.16
2022-09-20T15:36:50.919Z,100635.03
2022-09-20T15:41:53.839Z,100636.28
2022-09-20T15:46:56.447Z,100646.63
2022-09-20T15:51:58.846Z,100654.75
2022-09-20T15:57:01.297Z,100660.84
2022-09-20T16:02:03.874Z,100660.13
2022-09-20T16:07:09.541Z,100666.00
2022-09-20T16:12:12.043Z,100673.53
2022-09-20T16:17:15.206Z,100662.50
2022-09-20T16:22:19.437Z,100691.16
2022-09-20T16:27:21.886Z,100689.53
2022-09-20T16:32:24.302Z,100697.47
2022-09-20T16:37:26.753Z,100711.09
2022-09-20T16:42:29.509Z,100720.34
2022-09-20T16:47:31.819Z,100720.06
2022-09-20T16:52:35.906Z,100723.00
2022-09-20T16:57:38.522Z,100736.59
2022-09-20T17:02:44.572Z,100717.75
2022-09-20T17:07:49.549Z,100737.38
2022-09-20T17:12:57.701Z,100742.03
2022-09-20T17:18:00.266Z,100745.31
2022-09-20T17:23:02.981Z,100756.72
2022-09-20T17:28:05.347Z,100749.03
2022-09-20T17:33:08.034Z,100761.56
2022-09-20T17:38:10.598Z,100762.31
2022-09-20T17:43:12.879Z,100765.72
2022-09-20T17:48:15.714Z,100768.00
2022-09-20T17:53:18.169Z,100773.66
2022-09-20T17:58:20.610Z,100779.41
2022-09-20T18:03:24.107Z,100794.88
2022-09-20T18:08:26.485Z,100780.09
2022-09-20T18:13:30.412Z,100807.97
2022-09-20T18:18:33.212Z,100797.91
2022-09-20T18:23:35.554Z,100802.56
2022-09-20T18:28:38.091Z,100802.56
2022-09-20T18:33:41.153Z,100809.94
2022-09-20T18:38:46.986Z,100802.13
2022-09-20T18:43:49.286Z,100813.78
2022-09-20T18:48:55.903Z,100829.09
2022-09-20T18:53:58.752Z,100825.63
2022-09-20T18:59:09.408Z,100837.00
2022-09-20T19:04:33.736Z,100829.84
2022-09-20T19:10:03.910Z,100839.03
2022-09-20T19:15:08.985Z,100850.66
2022-09-20T19:20:51.717Z,100856.25
2022-09-20T19:26:24.569Z,100852.78
2022-09-20T19:31:32.262Z,100862.63
2022-09-20T19:36:57.980Z,100870.13
2022-09-20T19:42:20.088Z,100862.53
2022-09-20T19:47:34.510Z,100869.63
2022-09-20T19:52:39.507Z,100885.47
2022-09-20T19:57:47.239Z,100890.03
2022-09-20T20:02:49.995Z,100882.75
2022-09-20T20:08:13.643Z,100894.53
2022-09-20T20:14:02.563Z,100897.75
2022-09-20T20:19:30.894Z,100899.41
2022-09-20T20:24:36.160Z,100897.66
2022-09-20T20:29:38.525Z,100899.94
2022-09-20T20:34:40.934Z,100899.44
2022-09-20T20:39:43.335Z,100900.94
2022-09-20T20:44:46.128Z,100904.78
2022-09-20T20:49:52.507Z,100916.41
2022-09-20T20:54:55.141Z,100906.72
2022-09-20T20:59:57.575Z,100912.63
2022-09-20T21:05:01.311Z,100920.13
2022-09-20T21:10:03.887Z,100926.81
2022-09-20T21:15:06.725Z,100927.31
2022-09-20T21:20:09.867Z,100935.50
2022-09-20T21:25:12.833Z,100936.44
2022-09-20T21:30:15.384Z,100939.31
2022-09-20T21:35:17.756Z,100933.78
2022-09-20T21:40:20.046Z,100951.38
2022-09-20T21:45:25.162Z,100945.97
2022-09-20T21:50:27.413Z,100951.50
2022-09-20T21:55:29.751Z,100957.22
2022-09-20T22:00:32.097Z,100952.88
2022-09-20T22:05:34.844Z,100959.69
2022-09-20T22:10:37.156Z,100959.94
2022-09-20T22:15:39.562Z,100956.81
2022-09-20T22:20:41.965Z,100961.09
2022-09-20T22:25:44.216Z,100968.69
2022-09-20T22:30:46.576Z,100962.19
2022-09-20T22:35:48.990Z,100958.00
2022-09-20T22:40:55.972Z,100961.44
2022-09-20T22:46:03.599Z,100967.25
2022-09-20T22:51:11.936Z,100961.72
2022-09-20T22:56:25.690Z,100963.34
2022-09-20T23:01:30.378Z,100967.75
2022-09-20T23:06:41.505Z,100977.81
2022-09-20T23:11:44.438Z,100980.44
2022-09-20T23:16:47.312Z,100974.19
2022-09-20T23:21:49.764Z,100983.84
2022-09-20T23:26:52.192Z,100968.78
2022-09-20T23:31:54.494Z,100973.94
2022-09-20T23:36:56.899Z,100976.94
2022-09-20T23:41:59.513Z,100974.94
2022-09-20T23:47:01.855Z,100976.09
2022-09-20T23:52:04.551Z,100978.13
2022-09-20T23:57:06.872Z,100988.28
